Etusivu
METAR-TAF:

METAR-TAF

Lentoasemat :

Oslo, Norja

Gardermoenin lentoasema

Leveyspiiri: 60-12N, Pituuspiiri: 011-05E, korkeus merenpinnasta: 208 m

Tämänhetkinen sää

Tämä raportti tehtiin 48 minuuttia sitten, kello 14.50 UTC
Tuuli 9 kn lounaasta, vaihdellen etelän/lounaan ja lännen välillä
Lämpötila 17°C
Kosteus 36%
Ilmanpaine 991 hPa
Näkyvyys 10 km tai enemmän
ei pilviä alle 1500 m:ssä eikä cumulonimbus-pilviä

METAR: ENGM 251450Z 23009KT 200V270 CAVOK 17/02 Q0991 NOSIG

Aika: 17:38 (15:38 UTC)


TAF: puuttuu

Säähavainnot ja -ennusteet yli 4000 lentoasemalta (METAR- ja TAF-raportit).

Käytössä olevat sääasemat on merkitty karttaan keltaisilla ja punaisilla pisteillä.

Aseta hiiri pisteen päälle nähdäksesi sääaseman nimen.

Klikkaa sitten nähdäksesi säähavainnot ja -ennusteet.

Kartan vaihtaminen: klikkaa mustalla rastilla varustettuja vihreitä pisteitä, niin voit zoomata sisään; viivalla varustettua vihreää pistettä, niin voit zoomata ulos tai vihreitä nuolia, niin pääset viereisille kartoille.


METAR-TAF: